Time;durP1;ratioP1;P1;durP2;ratioP2;P2;SDS_P1;SDS_P2;PMS_P1;PMS_P2;Temp;Humidity;BMP_temperature;BMP_pressure;BME280_temperature;BME280_humidity;BME280_pressure;Samples;Min_cycle;Max_cycle;Signal;HPM_P1;HPM_P2
2022/02/17 03:25:57;;;;;;;48.55;8.90;;;;;;;12.14;65.92;99456.91;6088054;23;20021;31
2022/02/17 05:50:34;;;;;;;17.98;4.70;;;;;;;11.81;63.80;99685.13;5060966;23;20156;-96
2022/02/17 05:55:35;;;;;;;27.95;4.38;;;;;;;11.96;63.24;99697.97;5190572;23;20055;-96
2022/02/17 05:58:00;;;;;;;27.17;4.57;;;;;;;11.77;64.26;99699.50;4975096;28;20041;-95
2022/02/17 06:00:26;;;;;;;24.05;4.32;;;;;;;11.83;63.88;99704.25;4974274;28;20093;-94
2022/02/17 06:02:52;;;;;;;27.55;5.10;;;;;;;11.82;63.77;99717.53;4978786;28;20026;-96
2022/02/17 06:05:17;;;;;;;27.60;4.55;;;;;;;11.61;65.02;99717.50;4976297;28;20125;-95
2022/02/17 06:07:44;;;;;;;27.05;5.40;;;;;;;11.52;64.98;99722.56;4977834;28;20588;-95
2022/02/17 06:10:10;;;;;;;36.50;7.18;;;;;;;11.60;64.70;99718.50;4983286;28;20015;-96
2022/02/17 06:12:45;;;;;;;32.05;4.40;;;;;;;11.64;64.55;99725.16;4983124;28;20037;-96
2022/02/17 06:15:12;;;;;;;31.92;5.85;;;;;;;11.68;64.73;99729.19;4981594;28;20034;-96
2022/02/17 06:17:37;;;;;;;29.50;5.97;;;;;;;11.75;64.56;99738.25;4998688;23;20078;-96
2022/02/17 06:20:04;;;;;;;45.03;6.47;;;;;;;11.47;65.73;99735.28;4997575;28;20022;-94
2022/02/17 06:22:30;;;;;;;35.50;6.65;;;;;;;11.46;65.77;99743.28;4996043;28;20015;-95
2022/02/17 06:24:55;;;;;;;30.77;5.93;;;;;;;11.33;66.73;99743.44;4975358;28;20468;-95
2022/02/17 06:27:21;;;;;;;41.28;7.95;;;;;;;11.40;66.27;99746.44;4976712;28;20011;-94
2022/02/17 06:32:13;;;;;;;45.85;6.32;;;;;;;11.24;67.35;99759.97;4962788;28;20046;-93
2022/02/17 06:34:41;;;;;;;40.28;8.55;;;;;;;11.22;67.02;99775.88;4957769;28;20047;-94
2022/02/17 06:37:14;;;;;;;37.80;6.05;;;;;;;11.20;66.74;99783.03;4973914;28;20015;-95
2022/02/17 06:39:46;;;;;;;25.17;4.85;;;;;;;10.96;66.96;99772.72;5096502;23;20042;-95
2022/02/17 06:47:22;;;;;;;32.60;4.43;;;;;;;11.12;65.35;99772.31;5153222;23;20038;-94
2022/02/17 06:54:56;;;;;;;18.33;3.78;;;;;;;10.75;65.62;99784.91;5094672;23;20076;-96
2022/02/17 07:17:54;;;;;;;33.90;3.63;;;;;;;10.52;65.33;99822.50;5865227;23;20054;-96
2022/02/17 07:23:16;;;;;;;18.02;2.83;;;;;;;10.85;64.69;99836.59;5569582;23;20053;-96
2022/02/17 07:28:22;;;;;;;21.27;3.88;;;;;;;11.10;63.86;99840.75;5448697;23;20128;-96
2022/02/17 07:30:48;;;;;;;18.85;3.13;;;;;;;11.02;64.36;99858.91;5003444;28;20033;-96
2022/02/17 07:33:13;;;;;;;17.98;3.15;;;;;;;10.95;64.17;99889.22;4997942;28;20027;-96
2022/02/17 07:35:40;;;;;;;27.63;3.85;;;;;;;11.03;63.96;99878.97;5007082;28;20018;-96
2022/02/17 07:38:07;;;;;;;12.43;2.53;;;;;;;11.11;64.34;99880.97;5017255;28;20053;-95
2022/02/17 07:40:32;;;;;;;23.63;3.45;;;;;;;11.02;64.53;99887.81;5016887;28;20082;-96
2022/02/17 07:42:58;;;;;;;30.58;4.07;;;;;;;10.92;65.10;99886.84;5066256;23;20058;-96
2022/02/17 07:45:24;;;;;;;21.83;3.30;;;;;;;10.91;64.13;99891.25;5073142;23;20081;-96
2022/02/17 07:48:16;;;;;;;17.08;2.95;;;;;;;10.98;64.47;99875.88;5010161;28;20084;-96
2022/02/17 07:50:55;;;;;;;17.15;3.97;;;;;;;11.17;63.23;99890.19;4989336;28;20027;-96
2022/02/17 07:53:23;;;;;;;19.00;2.90;;;;;;;11.21;63.31;99907.38;5037997;23;20064;-95
2022/02/17 07:55:55;;;;;;;26.15;4.72;;;;;;;11.15;63.95;99908.69;5004382;28;20029;-95
2022/02/17 07:58:21;;;;;;;28.92;3.67;;;;;;;11.11;63.31;99923.03;5003683;28;20027;-96
2022/02/17 08:00:46;;;;;;;26.05;3.80;;;;;;;11.30;63.69;99946.09;4994251;28;20037;-95
2022/02/17 08:03:13;;;;;;;21.23;4.32;;;;;;;11.50;62.95;99949.78;4992502;28;20030;-95
2022/02/17 08:05:38;;;;;;;28.65;4.35;;;;;;;11.24;62.71;99951.81;4994935;28;20496;-96
2022/02/17 08:08:10;;;;;;;24.20;4.47;;;;;;;11.35;61.91;99945.72;4993580;28;20085;-96
2022/02/17 08:10:36;;;;;;;;;;;;;;;11.38;61.92;99967.34;5018380;23;20047;-96
2022/02/17 08:13:02;;;;;;;17.70;2.80;;;;;;;11.26;61.69;99974.38;4977026;28;19918;-96
2022/02/17 08:15:28;;;;;;;17.50;2.85;;;;;;;11.47;61.07;99955.25;4979365;28;20031;-96
2022/02/17 08:17:53;;;;;;;17.88;3.25;;;;;;;11.85;60.89;99970.63;4965120;28;20500;-96
2022/02/17 08:20:19;;;;;;;17.42;2.75;;;;;;;11.84;60.60;99968.13;4939619;29;20003;-96
2022/02/17 08:22:56;;;;;;;23.85;2.97;;;;;;;12.20;59.06;99959.06;4927851;29;20043;-96
2022/02/17 08:25:22;;;;;;;16.88;4.13;;;;;;;12.42;59.01;99952.88;4943343;29;20456;-96
2022/02/17 08:28:11;;;;;;;17.02;2.88;;;;;;;12.32;58.59;99945.84;5154754;23;20046;-96
2022/02/17 08:30:36;;;;;;;11.38;2.05;;;;;;;12.62;58.55;99959.13;5226831;23;20557;-92
2022/02/17 08:33:03;;;;;;;25.40;3.50;;;;;;;12.77;56.57;99982.50;4989392;28;20117;-96
2022/02/17 08:35:30;;;;;;;14.82;2.45;;;;;;;13.08;56.57;99970.19;4984367;28;20022;-96
2022/02/17 08:38:00;;;;;;;11.10;2.63;;;;;;;13.31;55.62;99992.00;4985485;28;20026;-96
2022/02/17 08:40:27;;;;;;;12.45;2.15;;;;;;;13.60;54.31;99993.91;4993164;28;20030;-96
2022/02/17 08:42:53;;;;;;;13.95;2.47;;;;;;;13.27;54.24;100006.38;4997483;28;20022;-96
2022/02/17 08:45:18;;;;;;;19.13;2.42;;;;;;;13.48;54.09;100001.91;4997485;28;20031;-96
2022/02/17 08:47:44;;;;;;;22.60;2.40;;;;;;;13.61;53.05;100004.31;4997352;28;20076;-96
2022/02/17 08:50:10;;;;;;;11.30;2.17;;;;;;;13.24;53.49;100001.34;4998390;28;20031;-96
2022/02/17 08:52:36;;;;;;;12.90;2.08;;;;;;;13.39;53.43;100026.44;4999115;28;20026;-96
2022/02/17 08:55:02;;;;;;;9.75;2.05;;;;;;;13.19;53.26;100019.34;4998039;28;20097;-96
2022/02/17 08:57:27;;;;;;;16.48;2.72;;;;;;;13.13;53.14;100025.16;5002796;28;20069;-95
2022/02/17 08:59:53;;;;;;;11.80;3.15;;;;;;;13.27;53.59;100024.84;5004405;28;20029;-96
2022/02/17 09:02:18;;;;;;;10.85;2.10;;;;;;;13.25;52.50;100047.81;4997518;28;20121;-96
2022/02/17 09:04:44;;;;;;;17.60;3.33;;;;;;;13.58;52.46;100061.78;4985155;28;20073;-96
2022/02/17 09:07:09;;;;;;;11.80;2.63;;;;;;;14.02;52.15;100054.41;4976772;28;20026;-96
2022/02/17 09:09:34;;;;;;;11.98;3.28;;;;;;;13.93;51.18;100049.97;4976753;28;20507;-96
2022/02/17 09:12:00;;;;;;;18.27;3.35;;;;;;;13.87;51.14;100046.88;4976739;28;20033;-95
2022/02/17 09:14:25;;;;;;;12.27;2.30;;;;;;;13.94;50.77;100064.81;4976972;28;20117;-96
2022/02/17 09:16:53;;;;;;;18.83;2.78;;;;;;;14.91;50.38;100067.63;4976356;28;20124;-96
2022/02/17 09:19:19;;;;;;;13.18;2.85;;;;;;;15.52;49.29;100062.88;4984971;28;20128;-95
2022/02/17 09:21:44;;;;;;;17.88;2.85;;;;;;;15.90;47.69;100064.59;4996624;28;20023;-96
2022/02/17 09:24:09;;;;;;;15.45;2.67;;;;;;;16.96;45.95;100077.25;4993214;28;20037;-95
2022/02/17 09:26:36;;;;;;;17.30;2.63;;;;;;;17.38;44.68;100080.06;4979335;28;20022;-95
2022/02/17 09:29:02;;;;;;;15.93;2.47;;;;;;;17.77;45.34;100086.72;4978989;28;20027;-95
2022/02/17 09:31:28;;;;;;;11.10;2.25;;;;;;;18.40;43.60;100106.75;5000701;28;20038;-95
2022/02/17 09:33:54;;;;;;;11.38;2.45;;;;;;;18.70;42.92;100092.03;4973084;28;20058;-95
2022/02/17 09:36:27;;;;;;;10.95;1.88;;;;;;;19.39;41.86;100084.53;4991880;28;20026;-94
2022/02/17 09:38:56;;;;;;;14.75;3.13;;;;;;;19.97;41.15;100095.03;4984502;28;20066;-95
2022/02/17 09:41:23;;;;;;;15.15;3.03;;;;;;;19.75;39.60;100101.97;4988034;28;20098;-95
2022/02/17 09:43:50;;;;;;;17.10;2.85;;;;;;;19.19;41.02;100099.19;4993016;28;20074;-95
2022/02/17 09:46:21;;;;;;;18.00;3.28;;;;;;;19.19;41.22;100096.53;4986580;28;20027;-96
2022/02/17 09:48:56;;;;;;;14.70;2.65;;;;;;;19.46;41.09;100121.13;4997183;28;20021;-95
2022/02/17 09:51:30;;;;;;;16.95;3.58;;;;;;;19.53;40.76;100120.28;4998816;28;20026;-95
2022/02/17 09:53:56;;;;;;;13.23;2.83;;;;;;;19.59;40.54;100108.13;4986368;28;20045;-94
2022/02/17 09:56:25;;;;;;;18.63;3.15;;;;;;;20.06;40.05;100112.66;4977094;28;20023;-94
2022/02/17 09:58:51;;;;;;;18.77;2.60;;;;;;;20.01;39.56;100112.34;4977443;28;20053;-90
2022/02/17 10:01:27;;;;;;;15.98;2.35;;;;;;;20.50;38.31;100106.78;4976710;28;20027;-91
2022/02/17 10:04:16;;;;;;;16.85;2.30;;;;;;;20.82;37.54;100118.25;4959599;28;20110;-92
2022/02/17 10:06:44;;;;;;;12.80;2.50;;;;;;;19.54;37.74;100129.09;4957097;28;20027;-95
2022/02/17 10:09:11;;;;;;;9.48;2.55;;;;;;;20.19;38.32;100131.59;4956355;28;20028;-95
2022/02/17 10:11:39;;;;;;;13.35;2.55;;;;;;;19.67;38.97;100124.09;4981767;28;20015;-95
2022/02/17 10:14:08;;;;;;;15.80;3.08;;;;;;;20.32;37.97;100130.19;4972006;28;20035;-94
2022/02/17 10:16:58;;;;;;;15.07;2.47;;;;;;;19.99;39.56;100133.00;4967726;28;20077;-95
2022/02/17 10:19:27;;;;;;;14.55;2.40;;;;;;;20.49;38.58;100129.09;4978941;28;20053;-94
2022/02/17 10:22:03;;;;;;;9.05;1.80;;;;;;;20.15;39.11;100148.09;4968702;28;20027;-94
2022/02/17 10:24:41;;;;;;;13.13;2.67;;;;;;;20.08;37.84;100126.63;4961539;28;20099;-95
2022/02/17 10:27:10;;;;;;;12.57;2.13;;;;;;;20.79;38.26;100137.28;4971284;28;20112;-94
2022/02/17 10:29:37;;;;;;;16.45;2.78;;;;;;;20.56;38.65;100134.56;4958070;28;20027;-92
2022/02/17 10:32:06;;;;;;;14.40;1.98;;;;;;;20.53;37.98;100130.41;4965266;28;20505;-95
2022/02/17 10:34:31;;;;;;;15.63;3.05;;;;;;;19.30;40.44;100137.97;4970176;28;20021;-95
2022/02/17 10:36:56;;;;;;;16.35;2.70;;;;;;;19.30;42.16;100144.09;4990189;28;20027;-94
2022/02/17 10:39:22;;;;;;;14.55;2.72;;;;;;;18.43;42.80;100157.75;4992720;28;20097;-95
2022/02/17 10:41:49;;;;;;;12.60;1.90;;;;;;;19.26;41.03;100156.09;4974012;28;20113;-96
2022/02/17 10:44:17;;;;;;;13.40;2.10;;;;;;;19.57;40.66;100139.44;4974466;28;20448;-93
2022/02/17 10:46:42;;;;;;;16.05;2.42;;;;;;;19.38;40.34;100157.41;4962810;28;20499;-96
2022/02/17 10:49:19;;;;;;;17.77;2.22;;;;;;;18.69;41.86;100166.66;4963881;28;20018;-96
2022/02/17 10:51:46;;;;;;;12.60;2.30;;;;;;;18.53;41.90;100160.28;4964629;28;20044;-96
2022/02/17 10:54:17;;;;;;;15.90;2.53;;;;;;;18.29;41.86;100182.31;4968174;28;20484;-96
2022/02/17 10:56:42;;;;;;;11.57;2.33;;;;;;;17.82;43.83;100175.56;4966899;28;20142;-93
2022/02/17 11:01:56;;;;;;;17.77;2.30;;;;;;;18.01;43.43;100185.16;4965169;28;20041;-95
2022/02/17 11:04:23;;;;;;;14.57;2.95;;;;;;;17.27;44.35;100190.91;4972790;28;20034;-96
2022/02/17 11:06:51;;;;;;;15.32;2.83;;;;;;;16.79;45.65;100195.56;4974757;28;20030;-96
2022/02/17 11:09:17;;;;;;;12.18;1.88;;;;;;;17.56;43.46;100185.34;4959632;28;20035;-96
2022/02/17 11:11:44;;;;;;;11.45;2.22;;;;;;;18.36;43.06;100191.28;4956932;28;20031;-96
2022/02/17 11:14:09;;;;;;;14.93;2.53;;;;;;;18.81;42.63;100195.44;4963418;28;20035;-95
2022/02/17 11:16:39;;;;;;;22.95;3.42;;;;;;;19.28;41.62;100183.38;4965384;28;20508;-95
2022/02/17 11:19:06;;;;;;;15.45;2.70;;;;;;;18.88;42.13;100177.03;4970494;28;20023;-96
2022/02/17 11:21:32;;;;;;;18.65;3.42;;;;;;;18.81;43.16;100181.31;4965561;28;20034;-95
2022/02/17 11:24:00;;;;;;;17.98;2.65;;;;;;;18.73;42.76;100162.66;4964445;28;20023;-96
2022/02/17 11:26:30;;;;;;;15.63;2.63;;;;;;;18.60;43.89;100142.69;4982589;28;20035;-95
2022/02/17 11:28:56;;;;;;;14.27;2.92;;;;;;;18.88;44.07;100139.78;4965281;28;20102;-94
2022/02/17 11:31:22;;;;;;;17.00;3.03;;;;;;;19.94;43.03;100138.00;4966149;28;20054;-96
2022/02/17 11:33:55;;;;;;;17.30;3.22;;;;;;;20.14;41.67;100136.63;4957235;28;20027;-91
2022/02/17 11:36:25;;;;;;;17.65;3.13;;;;;;;19.58;41.67;100147.22;4954535;28;20023;-96
2022/02/17 11:38:55;;;;;;;11.82;3.13;;;;;;;20.11;41.52;100133.47;4962209;28;20031;-96
2022/02/17 11:41:31;;;;;;;16.10;3.13;;;;;;;19.99;42.11;100146.34;4970759;28;20027;-96
2022/02/17 11:44:13;;;;;;;18.10;3.15;;;;;;;19.40;42.06;100160.72;4962094;28;20118;-96
2022/02/17 11:46:42;;;;;;;12.95;2.38;;;;;;;19.36;42.54;100158.59;4962637;28;20110;-96
2022/02/17 11:49:11;;;;;;;20.15;4.13;;;;;;;18.97;43.91;100154.72;4959322;28;20118;-94
2022/02/17 11:51:37;;;;;;;19.90;2.95;;;;;;;18.93;44.50;100150.75;4961829;28;20027;-96
2022/02/17 11:54:18;;;;;;;15.23;2.63;;;;;;;19.35;43.38;100140.94;4959331;28;20066;-96
2022/02/17 11:56:53;;;;;;;23.47;3.63;;;;;;;19.61;43.32;100130.09;4968027;28;20027;-96
2022/02/17 11:59:29;;;;;;;22.65;3.17;;;;;;;19.52;41.69;100117.78;4957470;28;20360;-96
2022/02/17 12:07:29;;;;;;;14.82;4.05;;;;;;;18.85;42.74;100102.84;5105851;23;20058;-96
2022/02/17 12:09:55;;;;;;;17.15;2.92;;;;;;;18.77;44.12;100113.47;4971374;28;20085;-96
2022/02/17 12:12:26;;;;;;;11.48;2.65;;;;;;;17.59;45.09;100118.66;4963679;28;20031;-95
2022/02/17 12:15:00;;;;;;;14.18;2.67;;;;;;;17.67;44.20;100102.75;4980381;28;20114;-95
2022/02/17 12:17:33;;;;;;;20.52;3.35;;;;;;;17.42;46.16;100110.59;4975443;28;20023;-95
2022/02/17 12:20:15;;;;;;;19.33;3.63;;;;;;;17.19;46.52;100114.75;4958622;28;20556;-94
2022/02/17 12:22:51;;;;;;;14.40;3.25;;;;;;;16.01;48.37;100135.88;4957940;28;20035;-94
2022/02/17 12:25:20;;;;;;;15.52;4.80;;;;;;;15.72;50.11;100151.84;4958642;28;20398;-95
2022/02/17 12:27:48;;;;;;;10.05;2.00;;;;;;;15.33;52.69;100183.66;4959199;28;20024;-94
2022/02/17 12:30:21;;;;;;;10.57;1.70;;;;;;;14.87;54.57;100156.13;4976797;28;20030;-93
2022/02/17 12:32:47;;;;;;;17.05;2.38;;;;;;;14.50;55.05;100155.88;4974693;28;20066;-94
2022/02/17 12:35:24;;;;;;;11.18;1.85;;;;;;;14.51;56.50;100182.16;4975804;28;20441;-93
2022/02/17 12:38:04;;;;;;;9.70;1.80;;;;;;;14.37;57.58;100170.16;4975425;28;20027;-93
2022/02/17 12:40:30;;;;;;;9.40;1.48;;;;;;;13.84;58.66;100176.50;4991044;28;20413;-94
2022/02/17 12:42:56;;;;;;;10.20;1.73;;;;;;;13.92;59.54;100143.31;4992118;28;20023;-94
2022/02/17 12:45:35;;;;;;;16.00;1.60;;;;;;;14.28;59.30;100136.66;4991856;28;20030;-96
2022/02/17 12:48:01;;;;;;;15.40;1.85;;;;;;;14.82;59.70;100124.78;4984002;28;20042;-94
2022/02/17 12:50:27;;;;;;;15.20;2.15;;;;;;;15.24;57.99;100124.50;4958770;28;20026;-95
2022/02/17 12:52:52;;;;;;;11.27;1.65;;;;;;;15.35;58.06;100142.03;4973049;28;20087;-96
2022/02/17 12:55:18;;;;;;;6.10;1.15;;;;;;;15.62;55.71;100145.72;4956799;29;20038;-95
2022/02/17 12:57:53;;;;;;;7.18;1.50;;;;;;;16.07;56.50;100147.69;4964375;28;20078;-96
2022/02/17 13:00:18;;;;;;;7.13;1.88;;;;;;;16.55;54.62;100141.31;4976720;28;20409;-95
2022/02/17 13:02:43;;;;;;;7.82;1.23;;;;;;;17.04;51.90;100133.00;4971243;28;20027;-95
2022/02/17 13:05:09;;;;;;;6.22;1.15;;;;;;;17.36;50.92;100127.13;4990410;28;20042;-95
2022/02/17 13:07:35;;;;;;;5.88;1.08;;;;;;;17.96;51.12;100117.56;4972422;28;20035;-96
2022/02/17 13:10:01;;;;;;;7.40;1.17;;;;;;;18.01;49.76;100101.97;4976368;28;20481;-94
2022/02/17 13:12:27;;;;;;;3.55;0.70;;;;;;;18.19;49.53;100109.84;4973552;28;20058;-96
2022/02/17 13:14:53;;;;;;;2.85;0.50;;;;;;;17.76;49.11;100101.81;4972209;28;20011;-96
2022/02/17 13:17:25;;;;;;;4.47;0.70;;;;;;;17.69;50.42;100106.09;4975732;28;20389;-93
2022/02/17 13:19:52;;;;;;;5.45;0.80;;;;;;;17.93;50.06;100124.03;4978561;28;20050;-95
2022/02/17 13:22:22;;;;;;;7.88;1.48;;;;;;;17.33;49.63;100116.00;4985134;28;20027;-95
2022/02/17 13:24:58;;;;;;;11.27;2.10;;;;;;;16.47;51.81;100130.63;4975811;28;20043;-96
2022/02/17 13:27:32;;;;;;;5.95;1.30;;;;;;;16.53;51.70;100135.34;4981475;28;20018;-95
2022/02/17 13:29:59;;;;;;;6.88;1.30;;;;;;;16.31;51.69;100138.38;4978982;28;20031;-96
2022/02/17 13:32:26;;;;;;;7.65;1.70;;;;;;;16.46;52.24;100150.16;4981085;28;20004;-95
2022/02/17 13:35:07;;;;;;;15.02;2.63;;;;;;;16.19;53.32;100146.53;4981068;28;20038;-96
2022/02/17 13:37:51;;;;;;;10.88;2.35;;;;;;;16.06;54.01;100130.16;4979487;28;20027;-94
2022/02/17 13:40:19;;;;;;;8.02;1.38;;;;;;;15.94;54.02;100132.16;4985152;28;20031;-95
2022/02/17 13:43:05;;;;;;;8.68;1.75;;;;;;;16.10;53.11;100141.28;4960914;28;20073;-96
2022/02/17 13:45:34;;;;;;;8.80;1.48;;;;;;;15.46;53.31;100144.53;4959448;29;20031;-95
2022/02/17 13:48:00;;;;;;;12.80;2.45;;;;;;;15.43;55.04;100139.50;4958018;28;20075;-96
2022/02/17 13:50:26;;;;;;;9.13;1.20;;;;;;;15.46;54.65;100126.00;4957647;28;20029;-96
2022/02/17 13:53:13;;;;;;;16.08;2.28;;;;;;;15.28;54.96;100154.13;4961114;28;20026;-95
2022/02/17 13:55:57;;;;;;;11.20;1.65;;;;;;;15.24;54.47;100153.59;4957739;28;20034;-96
2022/02/17 13:58:27;;;;;;;11.43;2.20;;;;;;;15.29;54.68;100166.41;4965352;28;20698;-96
2022/02/17 14:00:53;;;;;;;15.60;2.50;;;;;;;15.16;55.97;100177.25;4990199;28;20027;-95
2022/02/17 14:03:30;;;;;;;14.27;2.63;;;;;;;14.78;55.40;100181.53;4986045;28;20105;-96
2022/02/17 14:06:16;;;;;;;14.90;2.22;;;;;;;15.01;55.09;100174.19;4981234;28;20520;-96
2022/02/17 14:08:42;;;;;;;17.67;3.10;;;;;;;14.85;55.89;100176.56;4962992;28;20551;-94
2022/02/17 14:11:08;;;;;;;17.13;2.38;;;;;;;14.55;56.82;100146.56;4972580;28;20026;-93
2022/02/17 14:13:33;;;;;;;19.98;2.95;;;;;;;14.86;57.31;100154.44;4975133;28;20485;-96
2022/02/17 14:15:59;;;;;;;14.30;2.63;;;;;;;14.70;57.25;100154.97;4972873;28;20039;-95
2022/02/17 14:18:24;;;;;;;21.10;2.90;;;;;;;15.11;56.49;100152.22;4963291;28;20125;-95
2022/02/17 14:20:50;;;;;;;14.70;2.72;;;;;;;15.27;56.01;100152.47;4954799;29;20481;-96
2022/02/17 14:23:15;;;;;;;18.92;3.65;;;;;;;14.79;56.15;100158.59;4971061;28;20528;-95
2022/02/17 14:25:41;;;;;;;16.55;2.63;;;;;;;14.89;56.00;100162.09;4957774;28;20031;-95
2022/02/17 14:28:07;;;;;;;24.30;2.95;;;;;;;14.81;55.52;100168.06;4955748;28;20039;-94
2022/02/17 14:30:33;;;;;;;18.35;2.38;;;;;;;14.94;55.70;100146.63;4959867;28;20409;-95
2022/02/17 14:33:00;;;;;;;20.00;3.25;;;;;;;14.96;54.74;100149.16;4974478;28;20026;-94
2022/02/17 14:35:25;;;;;;;23.60;3.35;;;;;;;14.85;55.55;100174.75;4989620;28;20054;-94
2022/02/17 14:37:52;;;;;;;23.85;3.47;;;;;;;14.28;55.49;100165.69;4973532;28;20101;-92
2022/02/17 14:40:19;;;;;;;21.30;3.65;;;;;;;14.83;54.46;100160.84;4964505;28;20480;-85
2022/02/17 14:42:47;;;;;;;17.00;3.33;;;;;;;14.68;54.37;100163.03;4974125;28;20018;-86
2022/02/17 14:45:13;;;;;;;20.33;3.17;;;;;;;14.55;54.48;100156.28;4969047;28;20054;-85
2022/02/17 14:47:39;;;;;;;22.05;3.42;;;;;;;14.40;54.12;100175.19;4954754;28;20066;-85
2022/02/17 14:50:07;;;;;;;22.80;3.70;;;;;;;14.49;54.71;100157.66;4955988;28;20086;-85
2022/02/17 14:52:32;;;;;;;25.23;4.15;;;;;;;14.64;54.50;100169.56;4954447;28;20019;-86
2022/02/17 14:54:57;;;;;;;18.77;3.33;;;;;;;14.41;55.27;100181.28;4969787;28;20507;-86
2022/02/17 14:57:23;;;;;;;22.80;4.05;;;;;;;14.34;55.67;100161.69;4973809;28;20023;-86
2022/02/17 14:59:48;;;;;;;26.35;3.45;;;;;;;14.51;54.66;100158.38;4960790;28;20054;-86
2022/02/17 15:02:13;;;;;;;23.45;5.10;;;;;;;14.24;55.17;100159.84;4953292;28;20043;-88
2022/02/17 15:04:39;;;;;;;25.42;3.75;;;;;;;14.17;56.14;100152.59;4964827;28;20054;-88
2022/02/17 15:07:04;;;;;;;22.33;3.55;;;;;;;14.01;55.61;100161.00;4973025;28;20557;-86
2022/02/17 15:09:30;;;;;;;30.30;3.70;;;;;;;14.20;55.88;100150.50;4973915;28;20098;-86
2022/02/17 15:11:55;;;;;;;26.27;4.63;;;;;;;14.05;56.15;100150.03;4973947;28;20072;-86
2022/02/17 15:14:21;;;;;;;28.02;3.90;;;;;;;14.02;55.63;100123.06;4971988;28;20027;-87
2022/02/17 15:16:46;;;;;;;19.90;3.55;;;;;;;14.48;55.22;100124.31;4973727;28;20027;-86
2022/02/17 15:19:11;;;;;;;25.90;4.90;;;;;;;14.23;55.96;100125.63;4973478;28;20050;-87
2022/02/17 15:21:37;;;;;;;25.83;4.63;;;;;;;14.24;56.39;100122.88;4973646;28;20031;-87
2022/02/17 15:24:03;;;;;;;33.33;4.68;;;;;;;14.18;56.77;100130.47;4973327;28;20022;-87
2022/02/17 15:26:28;;;;;;;28.58;4.95;;;;;;;14.27;56.15;100121.75;4973483;28;20119;-87
2022/02/17 15:28:54;;;;;;;31.52;4.78;;;;;;;14.35;55.88;100124.56;4973065;28;20022;-87
2022/02/17 15:31:19;;;;;;;24.15;4.43;;;;;;;14.56;55.56;100139.50;4972135;28;20489;-87
2022/02/17 15:33:44;;;;;;;33.05;5.70;;;;;;;14.55;56.04;100129.88;4973211;28;20050;-87
2022/02/17 15:36:10;;;;;;;26.67;6.18;;;;;;;14.21;56.87;100138.13;4973369;28;20027;-87
2022/02/17 15:38:35;;;;;;;31.17;4.82;;;;;;;14.46;56.44;100132.38;4973256;28;20023;-86
2022/02/17 15:41:01;;;;;;;30.50;5.40;;;;;;;14.41;56.11;100136.38;4973346;28;20482;-87
2022/02/17 15:43:29;;;;;;;27.92;6.38;;;;;;;14.21;55.83;100144.25;4973167;28;20106;-87
2022/02/17 15:45:55;;;;;;;36.38;5.10;;;;;;;14.37;56.35;100127.06;4959574;28;20031;-87
2022/02/17 15:48:20;;;;;;;31.13;5.10;;;;;;;14.61;55.62;100130.22;4954174;28;20031;-87
2022/02/17 15:50:46;;;;;;;40.45;5.35;;;;;;;14.56;55.48;100155.34;4954858;28;20058;-85
2022/02/17 15:53:11;;;;;;;29.45;4.57;;;;;;;14.28;55.55;100140.13;4955190;28;20102;-85
2022/02/17 15:55:36;;;;;;;33.47;5.13;;;;;;;14.14;56.15;100132.56;4965415;28;20453;-85
2022/02/17 15:58:02;;;;;;;37.13;6.93;;;;;;;14.12;55.97;100138.94;4973578;28;20500;-85
2022/02/17 16:00:28;;;;;;;23.20;5.05;;;;;;;14.02;55.74;100133.63;4974344;28;20083;-86
2022/02/17 16:02:53;;;;;;;27.13;5.00;;;;;;;14.09;55.94;100137.41;4975703;28;20058;-86
2022/02/17 16:05:19;;;;;;;33.25;6.20;;;;;;;14.18;55.99;100139.25;4974268;28;20038;-86
2022/02/17 16:07:45;;;;;;;26.23;4.97;;;;;;;14.11;56.06;100148.66;4974460;28;20022;-86
2022/02/17 16:10:11;;;;;;;33.15;5.18;;;;;;;14.13;56.37;100130.88;4971365;28;20054;-85
2022/02/17 16:12:37;;;;;;;25.67;5.38;;;;;;;14.26;55.88;100141.22;4980011;28;20046;-86
2022/02/17 16:15:03;;;;;;;38.08;5.95;;;;;;;14.26;55.77;100141.22;4978332;28;20071;-85
2022/02/17 16:17:29;;;;;;;25.92;5.53;;;;;;;14.15;56.54;100134.22;4972740;28;20027;-85
2022/02/17 16:19:54;;;;;;;32.38;5.53;;;;;;;14.16;56.36;100141.19;4955607;28;20031;-85
2022/02/17 16:22:20;;;;;;;37.03;6.00;;;;;;;14.31;55.86;100132.88;4954560;28;20030;-88
2022/02/17 16:24:47;;;;;;;28.08;5.47;;;;;;;14.26;56.00;100135.94;4971629;28;20031;-87
2022/02/17 16:27:14;;;;;;;31.98;5.15;;;;;;;14.38;56.00;100140.13;4972436;28;20038;-88
2022/02/17 16:29:43;;;;;;;28.25;5.57;;;;;;;14.20;56.18;100126.75;4973685;28;20023;-87
2022/02/17 16:32:09;;;;;;;37.53;7.63;;;;;;;14.21;56.49;100115.19;4965179;28;20027;-87
2022/02/17 16:34:35;;;;;;;42.47;5.80;;;;;;;14.05;56.87;100125.44;4954305;28;20101;-88
2022/02/17 16:37:00;;;;;;;26.85;6.03;;;;;;;14.22;56.81;100127.44;4968531;28;20357;-87
2022/02/17 16:39:26;;;;;;;32.25;4.38;;;;;;;14.13;57.10;100136.16;4985252;28;20031;-88
2022/02/17 16:41:52;;;;;;;35.10;7.35;;;;;;;13.88;57.54;100138.31;4962134;28;20031;-89
2022/02/17 16:44:19;;;;;;;31.48;5.97;;;;;;;13.91;57.66;100125.81;4954109;28;20023;-89
2022/02/17 16:46:45;;;;;;;34.03;5.88;;;;;;;13.84;57.55;100136.91;4959002;28;20035;-91
2022/02/17 16:49:11;;;;;;;23.92;4.15;;;;;;;13.84;57.47;100134.25;4966783;28;20034;-88
2022/02/17 16:51:37;;;;;;;25.45;5.47;;;;;;;13.81;57.32;100136.31;4969707;28;20548;-88
2022/02/17 16:54:04;;;;;;;19.42;4.53;;;;;;;13.57;57.95;100133.97;4965335;28;20074;-86
2022/02/17 16:56:30;;;;;;;17.15;4.28;;;;;;;13.28;58.33;100129.31;4976173;28;20087;-87
2022/02/17 16:58:56;;;;;;;22.42;3.60;;;;;;;13.63;58.03;100138.72;4977044;28;20026;-87
2022/02/17 17:01:26;;;;;;;18.83;3.42;;;;;;;13.66;58.15;100128.75;4964684;28;20034;-87
2022/02/17 17:03:53;;;;;;;29.00;3.53;;;;;;;13.74;58.06;100140.44;4966877;28;20030;-88
2022/02/17 17:06:20;;;;;;;18.38;3.95;;;;;;;13.45;58.97;100131.41;4967000;28;20027;-90
2022/02/17 17:08:46;;;;;;;32.03;4.15;;;;;;;13.25;59.98;100129.56;4973909;28;20034;-88
2022/02/17 17:11:11;;;;;;;28.20;3.92;;;;;;;13.26;60.06;100134.72;4986911;28;20026;-89
2022/02/17 17:13:37;;;;;;;35.90;5.60;;;;;;;13.40;59.62;100127.47;4985944;28;20031;-87
2022/02/17 17:16:04;;;;;;;27.52;4.65;;;;;;;13.49;59.70;100132.00;4988607;28;20038;-94
2022/02/17 17:18:30;;;;;;;30.33;5.40;;;;;;;13.24;60.21;100141.09;4987786;28;20027;-89
2022/02/17 17:20:56;;;;;;;33.65;4.53;;;;;;;13.21;60.60;100142.19;4981419;28;20115;-89
2022/02/17 17:23:23;;;;;;;26.52;4.32;;;;;;;13.48;60.40;100141.69;4972121;28;20019;-88
2022/02/17 17:25:48;;;;;;;32.63;5.20;;;;;;;13.40;60.31;100144.13;4973923;28;20038;-89
2022/02/17 17:28:14;;;;;;;27.50;4.00;;;;;;;13.17;61.17;100130.22;4988269;28;20082;-89
2022/02/17 17:30:39;;;;;;;27.63;4.53;;;;;;;13.10;61.08;100139.59;4969496;28;20557;-96
2022/02/17 17:33:05;;;;;;;30.63;5.28;;;;;;;13.25;60.00;100137.47;4968862;28;20030;-87
2022/02/17 17:35:31;;;;;;;26.85;4.28;;;;;;;13.15;58.75;100142.69;4958130;28;20118;-88
2022/02/17 17:37:56;;;;;;;24.25;3.85;;;;;;;13.10;59.57;100139.59;4958667;28;20094;-94
2022/02/17 17:40:21;;;;;;;21.13;3.28;;;;;;;13.32;58.05;100124.66;4970406;28;20036;-96
2022/02/17 17:42:49;;;;;;;29.67;4.30;;;;;;;13.22;58.59;100121.91;4963691;28;20513;-96
2022/02/17 17:45:26;;;;;;;17.45;3.88;;;;;;;13.18;58.25;100129.25;4963020;28;20027;-96
2022/02/17 17:48:04;;;;;;;29.45;3.65;;;;;;;13.34;57.94;100123.56;4967202;28;20489;-96
2022/02/17 17:50:32;;;;;;;24.48;4.20;;;;;;;13.37;58.01;100125.94;4968637;28;20026;-95
2022/02/17 17:52:58;;;;;;;24.60;3.92;;;;;;;13.29;58.52;100116.03;4975844;28;20034;-96
2022/02/17 17:55:24;;;;;;;28.65;4.88;;;;;;;12.93;60.31;100106.72;4974268;28;20031;-93
2022/02/17 17:57:50;;;;;;;28.10;4.78;;;;;;;13.23;59.91;100119.16;4974525;28;20073;-95
2022/02/17 18:00:16;;;;;;;34.83;5.25;;;;;;;13.32;59.81;100114.94;4968953;28;20031;-93